sensor_id;sensor_type;location;lat;lon;timestamp;P1;durP1;ratioP1;P2;durP2;ratioP2
43823;SDS011;29470;53.550;9.926;2022-11-15T00:02:42;47.28;;;21.98;;
43823;SDS011;29470;53.550;9.926;2022-11-15T00:08:03;44.13;;;21.13;;
43823;SDS011;29470;53.550;9.926;2022-11-15T00:13:27;48.42;;;22.88;;
43823;SDS011;29470;53.550;9.926;2022-11-15T00:18:49;44.03;;;21.48;;
43823;SDS011;29470;53.550;9.926;2022-11-15T00:24:11;46.78;;;22.20;;
43823;SDS011;29470;53.550;9.926;2022-11-15T00:29:34;46.42;;;21.95;;
43823;SDS011;29470;53.550;9.926;2022-11-15T00:34:57;46.13;;;21.35;;
43823;SDS011;29470;53.550;9.926;2022-11-15T00:40:18;47.92;;;21.70;;
43823;SDS011;29470;53.550;9.926;2022-11-15T00:45:41;40.28;;;20.30;;
43823;SDS011;29470;53.550;9.926;2022-11-15T00:51:02;45.45;;;21.17;;
43823;SDS011;29470;53.550;9.926;2022-11-15T00:56:24;41.45;;;20.77;;
43823;SDS011;29470;53.550;9.926;2022-11-15T01:01:46;41.20;;;21.05;;
43823;SDS011;29470;53.550;9.926;2022-11-15T01:07:08;41.88;;;20.75;;
43823;SDS011;29470;53.550;9.926;2022-11-15T01:12:30;41.30;;;20.45;;
43823;SDS011;29470;53.550;9.926;2022-11-15T01:17:52;41.85;;;20.38;;
43823;SDS011;29470;53.550;9.926;2022-11-15T01:23:14;43.58;;;20.85;;
43823;SDS011;29470;53.550;9.926;2022-11-15T01:28:37;44.50;;;21.13;;
43823;SDS011;29470;53.550;9.926;2022-11-15T01:34:00;43.78;;;21.05;;
43823;SDS011;29470;53.550;9.926;2022-11-15T01:39:22;44.03;;;21.58;;
43823;SDS011;29470;53.550;9.926;2022-11-15T01:44:44;46.38;;;21.15;;
43823;SDS011;29470;53.550;9.926;2022-11-15T01:50:10;44.33;;;21.65;;
43823;SDS011;29470;53.550;9.926;2022-11-15T01:55:35;44.60;;;20.42;;
43823;SDS011;29470;53.550;9.926;2022-11-15T02:00:56;42.03;;;21.05;;
43823;SDS011;29470;53.550;9.926;2022-11-15T02:06:19;45.13;;;21.58;;
43823;SDS011;29470;53.550;9.926;2022-11-15T02:11:41;46.30;;;22.23;;
43823;SDS011;29470;53.550;9.926;2022-11-15T02:17:07;52.45;;;23.05;;
43823;SDS011;29470;53.550;9.926;2022-11-15T02:22:45;44.80;;;20.98;;
43823;SDS011;29470;53.550;9.926;2022-11-15T02:28:42;42.13;;;20.83;;
43823;SDS011;29470;53.550;9.926;2022-11-15T02:34:11;44.92;;;21.63;;
43823;SDS011;29470;53.550;9.926;2022-11-15T02:39:44;48.38;;;21.27;;
43823;SDS011;29470;53.550;9.926;2022-11-15T02:45:11;47.75;;;22.05;;
43823;SDS011;29470;53.550;9.926;2022-11-15T02:50:39;47.85;;;22.27;;
43823;SDS011;29470;53.550;9.926;2022-11-15T02:56:00;44.25;;;20.63;;
43823;SDS011;29470;53.550;9.926;2022-11-15T03:01:24;45.42;;;21.95;;
43823;SDS011;29470;53.550;9.926;2022-11-15T03:07:00;45.92;;;20.65;;
43823;SDS011;29470;53.550;9.926;2022-11-15T03:12:28;47.08;;;21.70;;
43823;SDS011;29470;53.550;9.926;2022-11-15T03:17:55;46.95;;;20.63;;
43823;SDS011;29470;53.550;9.926;2022-11-15T03:23:22;47.00;;;22.70;;
43823;SDS011;29470;53.550;9.926;2022-11-15T03:28:46;42.00;;;20.17;;
43823;SDS011;29470;53.550;9.926;2022-11-15T03:34:13;42.38;;;20.23;;
43823;SDS011;29470;53.550;9.926;2022-11-15T03:39:42;43.05;;;19.85;;
43823;SDS011;29470;53.550;9.926;2022-11-15T03:45:06;39.88;;;20.17;;
43823;SDS011;29470;53.550;9.926;2022-11-15T03:50:35;40.33;;;20.27;;
43823;SDS011;29470;53.550;9.926;2022-11-15T03:55:58;39.38;;;18.92;;
43823;SDS011;29470;53.550;9.926;2022-11-15T04:01:19;40.08;;;19.13;;
43823;SDS011;29470;53.550;9.926;2022-11-15T04:06:41;38.58;;;19.20;;
43823;SDS011;29470;53.550;9.926;2022-11-15T04:12:04;37.08;;;18.95;;
43823;SDS011;29470;53.550;9.926;2022-11-15T04:17:25;39.30;;;18.95;;
43823;SDS011;29470;53.550;9.926;2022-11-15T04:22:46;37.28;;;17.95;;
43823;SDS011;29470;53.550;9.926;2022-11-15T04:28:26;36.90;;;18.48;;
43823;SDS011;29470;53.550;9.926;2022-11-15T04:33:48;36.83;;;17.40;;
43823;SDS011;29470;53.550;9.926;2022-11-15T04:39:09;33.28;;;17.30;;
43823;SDS011;29470;53.550;9.926;2022-11-15T04:44:32;31.05;;;16.35;;
43823;SDS011;29470;53.550;9.926;2022-11-15T04:49:54;33.22;;;16.15;;
43823;SDS011;29470;53.550;9.926;2022-11-15T04:55:15;28.83;;;15.35;;
43823;SDS011;29470;53.550;9.926;2022-11-15T05:00:38;32.58;;;15.93;;
43823;SDS011;29470;53.550;9.926;2022-11-15T05:05:59;26.58;;;14.70;;
43823;SDS011;29470;53.550;9.926;2022-11-15T05:11:20;26.15;;;14.60;;
43823;SDS011;29470;53.550;9.926;2022-11-15T05:16:43;29.60;;;14.95;;
43823;SDS011;29470;53.550;9.926;2022-11-15T05:22:05;28.92;;;14.70;;
43823;SDS011;29470;53.550;9.926;2022-11-15T05:27:26;29.05;;;15.23;;
43823;SDS011;29470;53.550;9.926;2022-11-15T05:32:49;28.88;;;14.75;;
43823;SDS011;29470;53.550;9.926;2022-11-15T05:38:11;31.17;;;16.05;;
43823;SDS011;29470;53.550;9.926;2022-11-15T05:43:32;25.58;;;13.98;;
43823;SDS011;29470;53.550;9.926;2022-11-15T05:48:58;27.27;;;14.98;;
43823;SDS011;29470;53.550;9.926;2022-11-15T05:54:27;26.85;;;14.32;;
43823;SDS011;29470;53.550;9.926;2022-11-15T05:59:59;23.57;;;13.83;;
43823;SDS011;29470;53.550;9.926;2022-11-15T06:05:22;25.45;;;13.57;;
43823;SDS011;29470;53.550;9.926;2022-11-15T06:10:43;25.30;;;13.90;;
43823;SDS011;29470;53.550;9.926;2022-11-15T06:16:06;27.17;;;15.07;;
43823;SDS011;29470;53.550;9.926;2022-11-15T06:21:53;30.45;;;14.80;;
43823;SDS011;29470;53.550;9.926;2022-11-15T06:27:14;26.55;;;13.80;;
43823;SDS011;29470;53.550;9.926;2022-11-15T06:32:36;30.17;;;14.65;;
43823;SDS011;29470;53.550;9.926;2022-11-15T06:38:02;29.08;;;14.85;;
43823;SDS011;29470;53.550;9.926;2022-11-15T06:43:25;26.05;;;13.73;;
43823;SDS011;29470;53.550;9.926;2022-11-15T06:48:46;29.42;;;15.05;;
43823;SDS011;29470;53.550;9.926;2022-11-15T06:54:10;26.55;;;14.57;;
43823;SDS011;29470;53.550;9.926;2022-11-15T06:59:31;29.30;;;15.25;;
43823;SDS011;29470;53.550;9.926;2022-11-15T07:04:59;27.30;;;13.90;;
43823;SDS011;29470;53.550;9.926;2022-11-15T07:10:22;31.98;;;15.48;;
43823;SDS011;29470;53.550;9.926;2022-11-15T07:15:44;27.95;;;15.00;;
43823;SDS011;29470;53.550;9.926;2022-11-15T07:21:06;29.63;;;15.18;;
43823;SDS011;29470;53.550;9.926;2022-11-15T07:26:32;25.98;;;14.30;;
43823;SDS011;29470;53.550;9.926;2022-11-15T07:31:54;28.00;;;15.18;;
43823;SDS011;29470;53.550;9.926;2022-11-15T07:37:15;27.00;;;14.25;;
43823;SDS011;29470;53.550;9.926;2022-11-15T07:42:38;24.88;;;14.48;;
43823;SDS011;29470;53.550;9.926;2022-11-15T07:48:15;26.17;;;14.60;;
43823;SDS011;29470;53.550;9.926;2022-11-15T07:53:36;23.80;;;14.52;;
43823;SDS011;29470;53.550;9.926;2022-11-15T07:58:59;23.70;;;13.43;;
43823;SDS011;29470;53.550;9.926;2022-11-15T08:04:21;27.00;;;13.70;;
43823;SDS011;29470;53.550;9.926;2022-11-15T08:09:42;26.60;;;13.98;;
43823;SDS011;29470;53.550;9.926;2022-11-15T08:15:05;23.48;;;13.68;;
43823;SDS011;29470;53.550;9.926;2022-11-15T08:20:28;26.23;;;13.77;;
43823;SDS011;29470;53.550;9.926;2022-11-15T08:25:50;23.02;;;12.70;;
43823;SDS011;29470;53.550;9.926;2022-11-15T08:31:14;24.90;;;13.05;;
43823;SDS011;29470;53.550;9.926;2022-11-15T08:36:36;28.63;;;14.40;;
43823;SDS011;29470;53.550;9.926;2022-11-15T08:42:05;32.17;;;14.57;;
43823;SDS011;29470;53.550;9.926;2022-11-15T08:47:27;27.58;;;13.45;;
43823;SDS011;29470;53.550;9.926;2022-11-15T08:52:49;24.63;;;12.52;;
43823;SDS011;29470;53.550;9.926;2022-11-15T08:58:10;22.05;;;13.20;;
43823;SDS011;29470;53.550;9.926;2022-11-15T09:03:34;23.30;;;13.20;;
43823;SDS011;29470;53.550;9.926;2022-11-15T09:08:56;26.08;;;12.65;;
43823;SDS011;29470;53.550;9.926;2022-11-15T09:14:24;24.63;;;13.10;;
43823;SDS011;29470;53.550;9.926;2022-11-15T09:19:47;22.35;;;12.13;;
43823;SDS011;29470;53.550;9.926;2022-11-15T09:25:10;22.02;;;12.57;;
43823;SDS011;29470;53.550;9.926;2022-11-15T09:30:32;20.48;;;12.50;;
43823;SDS011;29470;53.550;9.926;2022-11-15T09:35:57;22.17;;;12.23;;
43823;SDS011;29470;53.550;9.926;2022-11-15T09:41:25;23.48;;;13.07;;
43823;SDS011;29470;53.550;9.926;2022-11-15T09:47:10;25.70;;;13.95;;
43823;SDS011;29470;53.550;9.926;2022-11-15T09:52:55;23.98;;;12.90;;
43823;SDS011;29470;53.550;9.926;2022-11-15T09:57:59;25.38;;;14.15;;
43823;SDS011;29470;53.550;9.926;2022-11-15T10:03:10;21.17;;;12.55;;
43823;SDS011;29470;53.550;9.926;2022-11-15T10:08:22;21.30;;;12.18;;
43823;SDS011;29470;53.550;9.926;2022-11-15T10:13:35;22.33;;;13.05;;
43823;SDS011;29470;53.550;9.926;2022-11-15T10:18:44;21.55;;;11.77;;
43823;SDS011;29470;53.550;9.926;2022-11-15T10:23:59;21.25;;;12.45;;
43823;SDS011;29470;53.550;9.926;2022-11-15T10:29:02;18.73;;;11.35;;
43823;SDS011;29470;53.550;9.926;2022-11-15T10:34:09;22.85;;;12.10;;
43823;SDS011;29470;53.550;9.926;2022-11-15T10:39:17;23.60;;;14.00;;
43823;SDS011;29470;53.550;9.926;2022-11-15T10:44:21;22.15;;;12.68;;
43823;SDS011;29470;53.550;9.926;2022-11-15T10:49:27;21.73;;;12.48;;
43823;SDS011;29470;53.550;9.926;2022-11-15T10:54:34;22.55;;;12.95;;
43823;SDS011;29470;53.550;9.926;2022-11-15T10:59:42;21.63;;;11.85;;
43823;SDS011;29470;53.550;9.926;2022-11-15T11:04:49;19.10;;;11.60;;
43823;SDS011;29470;53.550;9.926;2022-11-15T11:09:58;23.58;;;12.68;;
43823;SDS011;29470;53.550;9.926;2022-11-15T11:15:08;20.20;;;11.95;;
43823;SDS011;29470;53.550;9.926;2022-11-15T11:20:17;19.42;;;11.73;;
43823;SDS011;29470;53.550;9.926;2022-11-15T11:25:30;21.42;;;12.07;;
43823;SDS011;29470;53.550;9.926;2022-11-15T11:30:41;19.85;;;11.55;;
43823;SDS011;29470;53.550;9.926;2022-11-15T11:35:51;19.25;;;11.95;;
43823;SDS011;29470;53.550;9.926;2022-11-15T11:42:04;20.80;;;11.07;;
43823;SDS011;29470;53.550;9.926;2022-11-15T11:47:18;18.58;;;11.07;;
43823;SDS011;29470;53.550;9.926;2022-11-15T11:52:31;18.98;;;10.77;;
43823;SDS011;29470;53.550;9.926;2022-11-15T11:57:43;21.58;;;10.95;;
43823;SDS011;29470;53.550;9.926;2022-11-15T12:02:55;23.63;;;11.27;;
43823;SDS011;29470;53.550;9.926;2022-11-15T12:08:20;18.58;;;10.38;;
43823;SDS011;29470;53.550;9.926;2022-11-15T12:13:36;20.48;;;11.20;;
43823;SDS011;29470;53.550;9.926;2022-11-15T12:18:42;17.02;;;9.85;;
43823;SDS011;29470;53.550;9.926;2022-11-15T12:23:53;17.97;;;10.27;;
43823;SDS011;29470;53.550;9.926;2022-11-15T12:29:03;14.90;;;9.45;;
43823;SDS011;29470;53.550;9.926;2022-11-15T12:34:14;17.52;;;9.48;;
43823;SDS011;29470;53.550;9.926;2022-11-15T12:45:25;16.27;;;10.13;;
43823;SDS011;29470;53.550;9.926;2022-11-15T13:07:10;18.77;;;10.18;;
43823;SDS011;29470;53.550;9.926;2022-11-15T13:12:53;17.52;;;9.50;;
43823;SDS011;29470;53.550;9.926;2022-11-15T13:17:57;16.52;;;10.23;;
43823;SDS011;29470;53.550;9.926;2022-11-15T13:23:07;15.48;;;9.57;;
43823;SDS011;29470;53.550;9.926;2022-11-15T13:28:19;17.27;;;9.98;;
43823;SDS011;29470;53.550;9.926;2022-11-15T13:33:35;21.42;;;9.85;;
43823;SDS011;29470;53.550;9.926;2022-11-15T13:38:41;18.30;;;9.85;;
43823;SDS011;29470;53.550;9.926;2022-11-15T13:43:45;17.13;;;9.77;;
43823;SDS011;29470;53.550;9.926;2022-11-15T13:48:53;18.45;;;9.25;;
43823;SDS011;29470;53.550;9.926;2022-11-15T13:53:59;25.65;;;10.15;;
43823;SDS011;29470;53.550;9.926;2022-11-15T13:59:13;19.92;;;10.38;;
43823;SDS011;29470;53.550;9.926;2022-11-15T14:04:22;17.58;;;8.95;;
43823;SDS011;29470;53.550;9.926;2022-11-15T14:09:32;15.18;;;9.13;;
43823;SDS011;29470;53.550;9.926;2022-11-15T14:14:44;15.95;;;8.93;;
43823;SDS011;29470;53.550;9.926;2022-11-15T14:19:50;14.95;;;9.48;;
43823;SDS011;29470;53.550;9.926;2022-11-15T14:30:20;15.77;;;9.50;;
43823;SDS011;29470;53.550;9.926;2022-11-15T14:35:23;21.90;;;9.57;;
43823;SDS011;29470;53.550;9.926;2022-11-15T14:40:26;16.45;;;8.40;;
43823;SDS011;29470;53.550;9.926;2022-11-15T14:45:31;15.60;;;9.13;;
43823;SDS011;29470;53.550;9.926;2022-11-15T14:50:34;15.93;;;8.57;;
43823;SDS011;29470;53.550;9.926;2022-11-15T14:55:37;13.25;;;8.63;;
43823;SDS011;29470;53.550;9.926;2022-11-15T15:00:42;14.98;;;9.25;;
43823;SDS011;29470;53.550;9.926;2022-11-15T15:05:45;16.02;;;9.50;;
43823;SDS011;29470;53.550;9.926;2022-11-15T15:10:48;21.33;;;12.40;;
43823;SDS011;29470;53.550;9.926;2022-11-15T15:15:52;14.65;;;9.50;;
43823;SDS011;29470;53.550;9.926;2022-11-15T15:20:56;18.27;;;9.35;;
43823;SDS011;29470;53.550;9.926;2022-11-15T15:26:01;17.85;;;9.60;;
43823;SDS011;29470;53.550;9.926;2022-11-15T15:31:05;21.65;;;11.98;;
43823;SDS011;29470;53.550;9.926;2022-11-15T15:36:09;18.10;;;9.93;;
43823;SDS011;29470;53.550;9.926;2022-11-15T15:41:14;18.80;;;9.60;;
43823;SDS011;29470;53.550;9.926;2022-11-15T15:46:19;16.35;;;9.73;;
43823;SDS011;29470;53.550;9.926;2022-11-15T15:51:22;18.75;;;9.95;;
43823;SDS011;29470;53.550;9.926;2022-11-15T15:56:25;20.83;;;10.38;;
43823;SDS011;29470;53.550;9.926;2022-11-15T16:01:30;18.05;;;10.02;;
43823;SDS011;29470;53.550;9.926;2022-11-15T16:06:35;20.75;;;10.80;;
43823;SDS011;29470;53.550;9.926;2022-11-15T16:11:39;17.27;;;9.45;;
43823;SDS011;29470;53.550;9.926;2022-11-15T16:16:44;16.13;;;9.57;;
43823;SDS011;29470;53.550;9.926;2022-11-15T16:21:46;17.65;;;10.15;;
43823;SDS011;29470;53.550;9.926;2022-11-15T16:26:49;17.65;;;9.65;;
43823;SDS011;29470;53.550;9.926;2022-11-15T16:31:55;18.23;;;9.40;;
43823;SDS011;29470;53.550;9.926;2022-11-15T16:36:58;17.48;;;9.80;;
43823;SDS011;29470;53.550;9.926;2022-11-15T16:42:01;16.02;;;8.75;;
43823;SDS011;29470;53.550;9.926;2022-11-15T16:47:09;18.63;;;10.98;;
43823;SDS011;29470;53.550;9.926;2022-11-15T16:52:17;17.42;;;9.27;;
43823;SDS011;29470;53.550;9.926;2022-11-15T16:57:22;17.35;;;8.73;;
43823;SDS011;29470;53.550;9.926;2022-11-15T17:02:26;14.52;;;8.38;;
43823;SDS011;29470;53.550;9.926;2022-11-15T17:07:29;18.48;;;9.32;;
43823;SDS011;29470;53.550;9.926;2022-11-15T17:12:31;17.10;;;9.82;;
43823;SDS011;29470;53.550;9.926;2022-11-15T17:17:36;18.70;;;10.27;;
43823;SDS011;29470;53.550;9.926;2022-11-15T17:22:39;15.15;;;9.65;;
43823;SDS011;29470;53.550;9.926;2022-11-15T17:27:44;15.40;;;8.45;;
43823;SDS011;29470;53.550;9.926;2022-11-15T17:32:50;14.98;;;8.95;;
43823;SDS011;29470;53.550;9.926;2022-11-15T17:37:52;16.95;;;10.30;;
43823;SDS011;29470;53.550;9.926;2022-11-15T17:42:56;15.60;;;9.25;;
43823;SDS011;29470;53.550;9.926;2022-11-15T17:48:00;16.52;;;9.85;;
43823;SDS011;29470;53.550;9.926;2022-11-15T17:53:02;16.13;;;9.35;;
43823;SDS011;29470;53.550;9.926;2022-11-15T17:58:06;14.55;;;8.93;;
43823;SDS011;29470;53.550;9.926;2022-11-15T18:03:10;19.42;;;11.00;;
43823;SDS011;29470;53.550;9.926;2022-11-15T18:08:14;17.30;;;10.52;;
43823;SDS011;29470;53.550;9.926;2022-11-15T18:13:17;14.43;;;9.00;;
43823;SDS011;29470;53.550;9.926;2022-11-15T18:18:21;20.23;;;11.15;;
43823;SDS011;29470;53.550;9.926;2022-11-15T18:23:24;18.73;;;10.55;;
43823;SDS011;29470;53.550;9.926;2022-11-15T18:28:29;19.58;;;11.00;;
43823;SDS011;29470;53.550;9.926;2022-11-15T18:33:35;18.38;;;10.20;;
43823;SDS011;29470;53.550;9.926;2022-11-15T18:38:39;17.23;;;9.55;;
43823;SDS011;29470;53.550;9.926;2022-11-15T18:43:43;15.40;;;9.35;;
43823;SDS011;29470;53.550;9.926;2022-11-15T18:48:47;17.92;;;10.20;;
43823;SDS011;29470;53.550;9.926;2022-11-15T18:53:52;15.77;;;9.23;;
43823;SDS011;29470;53.550;9.926;2022-11-15T18:58:56;17.00;;;9.55;;
43823;SDS011;29470;53.550;9.926;2022-11-15T19:04:04;17.52;;;10.85;;
43823;SDS011;29470;53.550;9.926;2022-11-15T19:09:08;15.70;;;9.23;;
43823;SDS011;29470;53.550;9.926;2022-11-15T19:14:15;15.27;;;9.73;;
43823;SDS011;29470;53.550;9.926;2022-11-15T19:24:58;16.88;;;10.10;;
43823;SDS011;29470;53.550;9.926;2022-11-15T19:30:01;16.73;;;9.57;;
43823;SDS011;29470;53.550;9.926;2022-11-15T19:35:06;19.90;;;10.10;;
43823;SDS011;29470;53.550;9.926;2022-11-15T19:40:12;17.73;;;10.57;;
43823;SDS011;29470;53.550;9.926;2022-11-15T19:45:15;15.90;;;9.02;;
43823;SDS011;29470;53.550;9.926;2022-11-15T19:50:20;18.67;;;9.85;;
43823;SDS011;29470;53.550;9.926;2022-11-15T19:55:23;19.80;;;10.65;;
43823;SDS011;29470;53.550;9.926;2022-11-15T20:00:28;17.58;;;10.25;;
43823;SDS011;29470;53.550;9.926;2022-11-15T20:05:32;14.82;;;9.35;;
43823;SDS011;29470;53.550;9.926;2022-11-15T20:10:35;17.08;;;9.48;;
43823;SDS011;29470;53.550;9.926;2022-11-15T20:15:38;19.02;;;10.48;;
43823;SDS011;29470;53.550;9.926;2022-11-15T20:20:42;20.77;;;11.43;;
43823;SDS011;29470;53.550;9.926;2022-11-15T20:25:46;18.73;;;10.75;;
43823;SDS011;29470;53.550;9.926;2022-11-15T20:30:50;18.92;;;10.63;;
43823;SDS011;29470;53.550;9.926;2022-11-15T20:35:55;21.75;;;10.77;;
43823;SDS011;29470;53.550;9.926;2022-11-15T20:40:58;20.10;;;11.15;;
43823;SDS011;29470;53.550;9.926;2022-11-15T20:46:01;20.95;;;11.80;;
43823;SDS011;29470;53.550;9.926;2022-11-15T20:51:06;21.77;;;11.00;;
43823;SDS011;29470;53.550;9.926;2022-11-15T20:56:13;19.50;;;11.97;;
43823;SDS011;29470;53.550;9.926;2022-11-15T21:01:18;18.98;;;11.13;;
43823;SDS011;29470;53.550;9.926;2022-11-15T21:12:20;22.50;;;12.60;;
43823;SDS011;29470;53.550;9.926;2022-11-15T21:17:23;20.90;;;12.05;;
43823;SDS011;29470;53.550;9.926;2022-11-15T21:22:27;25.27;;;12.88;;
43823;SDS011;29470;53.550;9.926;2022-11-15T21:27:31;20.45;;;12.20;;
43823;SDS011;29470;53.550;9.926;2022-11-15T21:32:34;22.80;;;11.80;;
43823;SDS011;29470;53.550;9.926;2022-11-15T21:37:39;20.70;;;12.75;;
43823;SDS011;29470;53.550;9.926;2022-11-15T21:42:42;24.88;;;13.48;;
43823;SDS011;29470;53.550;9.926;2022-11-15T21:47:45;22.33;;;12.45;;
43823;SDS011;29470;53.550;9.926;2022-11-15T21:52:49;23.02;;;13.38;;
43823;SDS011;29470;53.550;9.926;2022-11-15T21:57:52;23.08;;;13.25;;
43823;SDS011;29470;53.550;9.926;2022-11-15T22:02:55;23.13;;;13.10;;
43823;SDS011;29470;53.550;9.926;2022-11-15T22:07:59;24.02;;;13.90;;
43823;SDS011;29470;53.550;9.926;2022-11-15T22:13:02;23.60;;;12.77;;
43823;SDS011;29470;53.550;9.926;2022-11-15T22:18:05;24.85;;;13.15;;
43823;SDS011;29470;53.550;9.926;2022-11-15T22:23:09;24.08;;;13.38;;
43823;SDS011;29470;53.550;9.926;2022-11-15T22:28:12;28.65;;;13.90;;
43823;SDS011;29470;53.550;9.926;2022-11-15T22:33:16;25.75;;;14.75;;
43823;SDS011;29470;53.550;9.926;2022-11-15T22:38:22;24.60;;;14.25;;
43823;SDS011;29470;53.550;9.926;2022-11-15T22:43:26;23.02;;;13.65;;
43823;SDS011;29470;53.550;9.926;2022-11-15T22:48:30;24.80;;;14.10;;
43823;SDS011;29470;53.550;9.926;2022-11-15T22:53:36;23.85;;;13.13;;
43823;SDS011;29470;53.550;9.926;2022-11-15T22:58:39;24.33;;;13.52;;
43823;SDS011;29470;53.550;9.926;2022-11-15T23:03:42;26.40;;;13.95;;
43823;SDS011;29470;53.550;9.926;2022-11-15T23:08:46;25.02;;;14.73;;
43823;SDS011;29470;53.550;9.926;2022-11-15T23:13:49;25.67;;;14.10;;
43823;SDS011;29470;53.550;9.926;2022-11-15T23:18:55;24.52;;;14.38;;
43823;SDS011;29470;53.550;9.926;2022-11-15T23:24:00;24.85;;;13.98;;
43823;SDS011;29470;53.550;9.926;2022-11-15T23:29:03;24.10;;;14.13;;
43823;SDS011;29470;53.550;9.926;2022-11-15T23:34:07;27.00;;;14.50;;
43823;SDS011;29470;53.550;9.926;2022-11-15T23:39:11;27.85;;;14.90;;
43823;SDS011;29470;53.550;9.926;2022-11-15T23:44:14;29.40;;;15.18;;
43823;SDS011;29470;53.550;9.926;2022-11-15T23:49:17;26.05;;;14.70;;
43823;SDS011;29470;53.550;9.926;2022-11-15T23:54:22;27.17;;;14.82;;
43823;SDS011;29470;53.550;9.926;2022-11-15T23:59:25;25.63;;;13.55;;
